Time;durP1;ratioP1;P1;durP2;ratioP2;P2;SDS_P1;SDS_P2;PMS_P1;PMS_P2;Temp;Humidity;BMP_temperature;BMP_pressure;BME280_temperature;BME280_humidity;BME280_pressure;Samples;Min_cycle;Max_cycle;Signal;HPM_P1;HPM_P2
2022/03/29 00:00:42;;;;;;;0.50;0.40;;;8.40;99.90;;;;;;5050979;28;20210;-77
2022/03/29 00:03:09;;;;;;;0.50;0.40;;;8.50;99.90;;;;;;5053344;28;20708;-76
2022/03/29 00:05:38;;;;;;;0.50;0.40;;;8.50;99.90;;;;;;5053602;28;20199;-77
2022/03/29 00:08:05;;;;;;;0.50;0.40;;;8.50;99.90;;;;;;5053141;28;20235;-77
2022/03/29 00:10:33;;;;;;;0.50;0.40;;;8.50;99.90;;;;;;5052838;28;20193;-76
2022/03/29 00:12:59;;;;;;;0.50;0.40;;;8.50;99.90;;;;;;5053052;28;20242;-77
2022/03/29 00:15:28;;;;;;;0.50;0.40;;;8.40;99.90;;;;;;5053136;28;20202;-76
2022/03/29 00:17:55;;;;;;;0.50;0.40;;;8.40;99.90;;;;;;5053271;28;20699;-75
2022/03/29 00:20:23;;;;;;;0.50;0.40;;;8.40;99.90;;;;;;5052399;28;20619;-77
2022/03/29 00:22:51;;;;;;;0.50;0.40;;;8.30;99.90;;;;;;5052932;28;20592;-77
2022/03/29 00:25:18;;;;;;;0.50;0.40;;;8.30;99.90;;;;;;5052973;28;20234;-77
2022/03/29 00:27:45;;;;;;;0.50;0.40;;;8.30;99.90;;;;;;5052971;28;20221;-77
2022/03/29 00:30:15;;;;;;;0.50;0.40;;;8.30;99.90;;;;;;5052320;28;20187;-77
2022/03/29 00:32:43;;;;;;;0.50;0.40;;;8.20;99.90;;;;;;5052974;28;20214;-77
2022/03/29 00:35:10;;;;;;;0.50;0.40;;;8.20;99.90;;;;;;5052550;28;20201;-77
2022/03/29 00:37:37;;;;;;;0.50;0.40;;;8.20;99.90;;;;;;5052712;28;20191;-77
2022/03/29 00:40:07;;;;;;;0.50;0.40;;;8.20;99.90;;;;;;5051879;28;20545;-77
2022/03/29 00:42:35;;;;;;;0.50;0.40;;;8.20;99.90;;;;;;5053044;28;20215;-77
2022/03/29 00:45:02;;;;;;;0.50;0.40;;;8.20;99.90;;;;;;5052671;28;20722;-77
2022/03/29 00:47:29;;;;;;;0.50;0.40;;;8.10;99.90;;;;;;5052689;28;20202;-77
2022/03/29 00:49:55;;;;;;;0.50;0.40;;;8.20;99.90;;;;;;5050952;28;20664;-77
2022/03/29 00:52:23;;;;;;;0.50;0.40;;;8.10;99.90;;;;;;5052936;28;20227;-78
2022/03/29 00:54:50;;;;;;;0.50;0.40;;;8.20;99.90;;;;;;5052456;28;20206;-75
2022/03/29 00:57:18;;;;;;;0.50;0.40;;;8.20;99.90;;;;;;5052393;28;20602;-77
2022/03/29 00:59:46;;;;;;;0.50;0.40;;;8.10;99.90;;;;;;5051755;28;20783;-77
2022/03/29 01:02:13;;;;;;;0.50;0.40;;;8.10;99.90;;;;;;5051207;28;20309;-77
2022/03/29 01:04:40;;;;;;;0.50;0.40;;;8.10;99.90;;;;;;5052143;28;20680;-77
2022/03/29 01:07:07;;;;;;;1.38;1.27;;;8.10;99.90;;;;;;5052520;28;20258;-76
2022/03/29 01:09:34;;;;;;;0.50;0.40;;;8.10;99.90;;;;;;5051154;28;20223;-76
2022/03/29 01:12:01;;;;;;;0.50;0.40;;;8.10;99.90;;;;;;5052050;28;20231;-77
2022/03/29 01:14:31;;;;;;;0.50;0.40;;;8.10;99.90;;;;;;5052034;28;20218;-77
2022/03/29 01:19:44;;;;;;;0.50;0.40;;;8.20;99.90;;;;;;5051267;28;20178;-77
2022/03/29 01:22:13;;;;;;;0.50;0.40;;;8.20;99.90;;;;;;5051659;28;20253;-77
2022/03/29 01:24:43;;;;;;;0.50;0.40;;;8.20;99.90;;;;;;5051925;28;20718;-77
2022/03/29 01:27:10;;;;;;;0.50;0.40;;;8.20;99.90;;;;;;5051762;28;20293;-77
2022/03/29 01:29:38;;;;;;;0.50;0.50;;;8.30;99.90;;;;;;5050938;28;20290;-77
2022/03/29 01:32:08;;;;;;;0.50;0.40;;;8.30;99.90;;;;;;5052102;28;20723;-77
2022/03/29 01:34:37;;;;;;;0.50;0.40;;;8.30;99.90;;;;;;5051659;28;20202;-77
2022/03/29 01:37:04;;;;;;;0.50;0.40;;;8.30;99.90;;;;;;5051934;28;20197;-77
2022/03/29 01:39:32;;;;;;;0.50;0.40;;;8.40;99.90;;;;;;5051095;28;20198;-77
2022/03/29 01:41:59;;;;;;;0.50;0.40;;;8.50;99.90;;;;;;5051144;28;20222;-77
2022/03/29 01:44:25;;;;;;;0.50;0.40;;;8.60;99.90;;;;;;5052054;28;20201;-77
2022/03/29 01:46:53;;;;;;;0.50;0.40;;;8.60;99.90;;;;;;5051304;28;20226;-77
2022/03/29 01:49:20;;;;;;;0.50;0.40;;;8.60;99.90;;;;;;5051057;28;20210;-77
2022/03/29 01:51:48;;;;;;;0.50;0.40;;;8.50;99.90;;;;;;5051547;28;20211;-77
2022/03/29 01:54:15;;;;;;;0.50;0.40;;;8.50;99.90;;;;;;5051314;28;20632;-77
2022/03/29 01:56:43;;;;;;;0.50;0.40;;;8.40;99.90;;;;;;5051539;28;20295;-77
2022/03/29 01:59:12;;;;;;;1.25;1.05;;;8.40;99.90;;;;;;5050481;28;20291;-77
2022/03/29 02:01:40;;;;;;;0.50;0.40;;;8.40;99.90;;;;;;5049695;28;20309;-77
2022/03/29 02:04:07;;;;;;;0.50;0.40;;;8.40;99.90;;;;;;5051239;28;20285;-77
2022/03/29 02:06:33;;;;;;;0.50;0.40;;;8.30;99.90;;;;;;5050898;28;20229;-77
2022/03/29 02:09:00;;;;;;;0.50;0.40;;;8.30;99.90;;;;;;5050808;28;20207;-77
2022/03/29 02:11:27;;;;;;;0.50;0.40;;;8.30;99.90;;;;;;5051418;28;20250;-77
2022/03/29 02:13:55;;;;;;;0.60;0.40;;;8.30;99.90;;;;;;5051226;28;20187;-76
2022/03/29 02:16:22;;;;;;;0.50;0.40;;;8.20;99.90;;;;;;5051442;28;20195;-76
2022/03/29 02:18:49;;;;;;;0.50;0.40;;;8.20;99.90;;;;;;5050804;28;20199;-77
2022/03/29 02:21:16;;;;;;;0.60;0.40;;;8.10;99.90;;;;;;5050685;28;20211;-76
2022/03/29 02:23:43;;;;;;;0.50;0.40;;;8.10;99.90;;;;;;5051307;28;20203;-76
2022/03/29 02:26:10;;;;;;;0.75;0.75;;;8.10;99.90;;;;;;5051322;28;20224;-76
2022/03/29 02:28:37;;;;;;;0.50;0.50;;;8.00;99.90;;;;;;5051457;28;20237;-76
2022/03/29 02:31:09;;;;;;;0.50;0.40;;;8.00;99.90;;;;;;5051028;28;20665;-76
2022/03/29 02:33:36;;;;;;;0.50;0.40;;;7.90;99.90;;;;;;5051006;28;20341;-77
2022/03/29 02:36:03;;;;;;;0.50;0.40;;;8.00;99.90;;;;;;5051270;28;20221;-76
2022/03/29 02:38:30;;;;;;;0.55;0.40;;;8.00;99.90;;;;;;5051469;28;20598;-76
2022/03/29 02:40:58;;;;;;;0.50;0.40;;;7.90;99.90;;;;;;5050247;28;20684;-76
2022/03/29 02:43:26;;;;;;;0.50;0.40;;;8.00;99.90;;;;;;5050367;28;20222;-76
2022/03/29 02:45:53;;;;;;;0.50;0.40;;;7.90;99.90;;;;;;5050962;28;20624;-77
2022/03/29 02:48:21;;;;;;;1.02;1.02;;;7.90;99.90;;;;;;5051221;28;20200;-76
2022/03/29 02:50:47;;;;;;;0.60;0.50;;;8.00;99.90;;;;;;5050383;28;20195;-76
2022/03/29 02:53:15;;;;;;;0.50;0.40;;;8.00;99.90;;;;;;5050975;28;20226;-76
2022/03/29 02:55:42;;;;;;;1.40;1.30;;;8.00;99.90;;;;;;5052622;28;20222;-76
2022/03/29 02:58:09;;;;;;;0.60;0.60;;;8.20;99.90;;;;;;5050604;28;20274;-76
2022/03/29 03:00:36;;;;;;;0.50;0.50;;;8.10;99.90;;;;;;5049216;28;20194;-76
2022/03/29 03:03:04;;;;;;;0.60;0.60;;;8.10;99.90;;;;;;5050824;28;20216;-77
2022/03/29 03:05:32;;;;;;;0.50;0.40;;;8.10;99.90;;;;;;5050761;28;20633;-76
2022/03/29 03:07:59;;;;;;;0.88;0.75;;;8.20;99.90;;;;;;5051025;28;20244;-76
2022/03/29 03:10:27;;;;;;;0.50;0.40;;;8.10;99.90;;;;;;5049631;28;20214;-77
2022/03/29 03:12:54;;;;;;;0.50;0.40;;;8.00;99.90;;;;;;5051838;28;20611;-77
2022/03/29 03:15:22;;;;;;;0.50;0.40;;;7.90;99.90;;;;;;5054463;28;20195;-76
2022/03/29 03:17:51;;;;;;;0.60;0.40;;;7.90;99.90;;;;;;5054387;28;20615;-77
2022/03/29 03:20:18;;;;;;;0.50;0.40;;;7.80;99.90;;;;;;5053676;28;20201;-76
2022/03/29 03:22:46;;;;;;;0.50;0.40;;;7.80;99.90;;;;;;5053672;28;20229;-77
2022/03/29 03:25:13;;;;;;;0.50;0.40;;;7.90;99.90;;;;;;5054194;28;20197;-76
2022/03/29 03:27:41;;;;;;;0.50;0.40;;;7.90;99.90;;;;;;5054339;28;20203;-76
2022/03/29 03:30:10;;;;;;;0.85;0.82;;;7.90;99.90;;;;;;5053287;28;20226;-76
2022/03/29 03:32:37;;;;;;;0.50;0.40;;;7.90;99.90;;;;;;5054079;28;20211;-76
2022/03/29 03:35:05;;;;;;;0.60;0.60;;;7.90;99.90;;;;;;5053986;28;20839;-76
2022/03/29 03:37:33;;;;;;;0.60;0.50;;;7.90;99.90;;;;;;5054173;28;20202;-76
2022/03/29 03:40:01;;;;;;;0.70;0.70;;;7.90;99.90;;;;;;5053029;28;20300;-77
2022/03/29 03:42:28;;;;;;;0.98;0.90;;;7.90;99.90;;;;;;5053637;28;20218;-77
2022/03/29 03:44:55;;;;;;;0.50;0.40;;;7.80;99.90;;;;;;5053833;28;20199;-76
2022/03/29 03:47:21;;;;;;;0.50;0.40;;;7.80;99.90;;;;;;5053897;28;20673;-77
2022/03/29 03:49:48;;;;;;;0.50;0.45;;;7.80;99.90;;;;;;5053076;28;20191;-77
2022/03/29 03:52:15;;;;;;;0.50;0.38;;;7.90;99.90;;;;;;5053550;28;20213;-77
2022/03/29 03:54:42;;;;;;;0.50;0.40;;;7.90;99.90;;;;;;5053787;28;20226;-76
2022/03/29 03:57:10;;;;;;;0.50;0.40;;;7.90;99.90;;;;;;5053668;28;20195;-76
2022/03/29 03:59:37;;;;;;;0.50;0.40;;;7.90;99.90;;;;;;5053117;28;20214;-78
2022/03/29 04:02:04;;;;;;;0.60;0.60;;;7.80;99.90;;;;;;5051439;28;20215;-76
2022/03/29 04:04:31;;;;;;;0.60;0.50;;;7.90;99.90;;;;;;5053570;28;20207;-76
2022/03/29 04:06:58;;;;;;;1.02;1.02;;;7.90;99.90;;;;;;5054421;28;20199;-77
2022/03/29 04:09:24;;;;;;;0.50;0.40;;;7.90;99.90;;;;;;5053074;28;20565;-78
2022/03/29 04:11:52;;;;;;;0.50;0.40;;;7.90;99.90;;;;;;5052569;28;20254;-78
2022/03/29 04:14:20;;;;;;;0.50;0.40;;;7.90;99.90;;;;;;5053613;28;20187;-77
2022/03/29 04:16:46;;;;;;;0.50;0.50;;;7.90;99.90;;;;;;5052912;28;20190;-77
2022/03/29 04:19:13;;;;;;;0.50;0.50;;;7.90;99.90;;;;;;5050534;28;20192;-78
2022/03/29 04:21:40;;;;;;;0.50;0.40;;;7.90;99.90;;;;;;5050049;28;20217;-77
2022/03/29 04:24:07;;;;;;;0.50;0.50;;;7.90;99.90;;;;;;5050384;28;20226;-76
2022/03/29 04:26:34;;;;;;;0.50;0.40;;;7.90;99.90;;;;;;5052288;28;20667;-77
2022/03/29 04:29:00;;;;;;;2.25;1.25;;;7.90;99.90;;;;;;5047868;28;20186;-77
2022/03/29 04:31:29;;;;;;;2.05;1.95;;;7.90;99.90;;;;;;5049832;28;20238;-79
2022/03/29 04:33:55;;;;;;;0.70;0.70;;;7.90;99.90;;;;;;5050733;28;20191;-76
2022/03/29 04:36:23;;;;;;;0.93;0.93;;;7.90;99.90;;;;;;5053491;28;20233;-77
2022/03/29 04:38:50;;;;;;;0.50;0.40;;;7.90;99.90;;;;;;5053066;28;20230;-76
2022/03/29 04:41:16;;;;;;;0.50;0.40;;;7.80;99.90;;;;;;5054233;28;20198;-76
2022/03/29 04:43:43;;;;;;;0.50;0.40;;;7.70;99.90;;;;;;5052807;28;20201;-77
2022/03/29 04:46:10;;;;;;;0.50;0.40;;;7.70;99.90;;;;;;5041685;28;20218;-76
2022/03/29 04:48:38;;;;;;;0.68;0.68;;;7.50;99.90;;;;;;5053174;28;20195;-76
2022/03/29 04:51:05;;;;;;;0.60;0.50;;;7.40;99.90;;;;;;5051975;28;20653;-77
2022/03/29 04:53:31;;;;;;;0.50;0.40;;;7.50;99.90;;;;;;5052858;28;20226;-77
2022/03/29 04:55:58;;;;;;;0.50;0.40;;;7.50;99.90;;;;;;5052644;28;20660;-77
2022/03/29 04:58:26;;;;;;;1.70;0.95;;;7.40;99.90;;;;;;5051887;28;20201;-77
2022/03/29 05:00:53;;;;;;;0.60;0.40;;;7.40;99.90;;;;;;5046869;28;20194;-77
2022/03/29 05:03:19;;;;;;;1.17;0.85;;;7.40;99.90;;;;;;5043522;28;20588;-76
2022/03/29 05:05:47;;;;;;;0.50;0.40;;;7.40;99.90;;;;;;5052775;28;20190;-76
2022/03/29 05:08:14;;;;;;;0.50;0.40;;;7.40;99.90;;;;;;5052417;28;20202;-75
2022/03/29 05:10:41;;;;;;;1.05;1.05;;;7.40;99.90;;;;;;5050847;28;20202;-76
2022/03/29 05:13:09;;;;;;;0.50;0.40;;;7.30;99.90;;;;;;5051280;28;20592;-76
2022/03/29 05:15:36;;;;;;;0.50;0.40;;;7.30;99.90;;;;;;5052474;28;20234;-77
2022/03/29 05:18:03;;;;;;;0.50;0.47;;;7.20;99.90;;;;;;5052311;28;20190;-76
2022/03/29 05:20:29;;;;;;;0.50;0.40;;;7.10;99.90;;;;;;5051112;28;20202;-75
2022/03/29 05:22:57;;;;;;;1.08;1.08;;;7.10;99.90;;;;;;5051562;28;20223;-75
2022/03/29 05:25:26;;;;;;;0.50;0.40;;;7.00;99.90;;;;;;5048310;28;20202;-75
2022/03/29 05:27:54;;;;;;;0.50;0.50;;;7.00;99.90;;;;;;5032615;28;20200;-76
2022/03/29 05:30:21;;;;;;;0.50;0.40;;;6.90;99.90;;;;;;5031118;28;20231;-75
2022/03/29 05:32:51;;;;;;;0.50;0.43;;;6.90;99.90;;;;;;5032030;28;20246;-75
2022/03/29 05:35:18;;;;;;;0.50;0.40;;;6.90;99.90;;;;;;5031776;28;20195;-77
2022/03/29 05:37:44;;;;;;;0.50;0.45;;;6.80;99.90;;;;;;5032294;28;20191;-77
2022/03/29 05:40:13;;;;;;;4.45;4.25;;;6.90;99.90;;;;;;5031517;28;20221;-78
2022/03/29 05:42:40;;;;;;;0.50;0.40;;;6.90;99.90;;;;;;5038790;28;20250;-76
2022/03/29 05:45:09;;;;;;;0.50;0.40;;;6.90;99.90;;;;;;5051936;28;20222;-74
2022/03/29 05:50:20;;;;;;;3.17;1.85;;;7.00;99.90;;;;;;5050687;28;20245;-75
2022/03/29 05:52:47;;;;;;;0.50;0.50;;;6.90;99.90;;;;;;5051328;28;20281;-76
2022/03/29 05:55:16;;;;;;;0.50;0.40;;;6.90;99.90;;;;;;5051392;28;20190;-75
2022/03/29 05:57:43;;;;;;;0.50;0.50;;;6.90;99.90;;;;;;5044190;28;20226;-78
2022/03/29 06:00:11;;;;;;;0.60;0.60;;;6.90;99.90;;;;;;5036909;28;20645;-75
2022/03/29 06:02:38;;;;;;;0.90;0.90;;;7.00;99.90;;;;;;5032418;28;20219;-75
2022/03/29 06:05:07;;;;;;;0.50;0.40;;;7.00;99.90;;;;;;5032439;28;20199;-75
2022/03/29 06:07:33;;;;;;;0.50;0.40;;;7.00;99.90;;;;;;5031875;28;20199;-75
2022/03/29 06:10:00;;;;;;;0.50;0.40;;;7.10;99.90;;;;;;5029827;28;20195;-75
2022/03/29 06:12:28;;;;;;;0.50;0.40;;;7.00;99.90;;;;;;5031960;28;20223;-75
2022/03/29 06:14:55;;;;;;;2.80;1.67;;;7.10;99.90;;;;;;5033130;28;20196;-77
2022/03/29 06:17:22;;;;;;;0.98;0.95;;;7.10;99.90;;;;;;5037374;28;20210;-77
2022/03/29 06:19:48;;;;;;;0.68;0.65;;;7.20;99.90;;;;;;5049392;28;20199;-75
2022/03/29 06:22:15;;;;;;;0.50;0.40;;;7.30;99.90;;;;;;5051256;28;20689;-76
2022/03/29 06:24:42;;;;;;;1.00;0.77;;;7.30;99.90;;;;;;5052241;28;20202;-77
2022/03/29 06:27:09;;;;;;;1.67;1.63;;;7.50;99.90;;;;;;5052108;28;20195;-76
2022/03/29 06:29:37;;;;;;;0.50;0.40;;;7.40;99.90;;;;;;5050918;28;20246;-75
2022/03/29 06:32:05;;;;;;;0.50;0.40;;;7.40;99.90;;;;;;5051165;28;20215;-76
2022/03/29 06:34:31;;;;;;;0.50;0.50;;;7.50;99.90;;;;;;5051451;28;20197;-75
2022/03/29 06:36:59;;;;;;;0.50;0.40;;;7.50;99.90;;;;;;5052586;28;20212;-76
2022/03/29 06:39:26;;;;;;;0.50;0.40;;;7.50;99.90;;;;;;5050647;28;20783;-76
2022/03/29 06:41:55;;;;;;;0.50;0.40;;;7.60;99.90;;;;;;5051393;28;20227;-74
2022/03/29 06:44:22;;;;;;;0.60;0.40;;;7.60;99.90;;;;;;5049986;28;20199;-73
2022/03/29 06:46:50;;;;;;;0.50;0.40;;;7.70;99.90;;;;;;5041056;28;20253;-75
2022/03/29 06:49:17;;;;;;;0.50;0.40;;;7.80;99.90;;;;;;5034042;28;20201;-76
2022/03/29 06:51:45;;;;;;;0.50;0.40;;;7.80;99.90;;;;;;5034317;28;20219;-75
2022/03/29 06:54:12;;;;;;;1.05;1.05;;;7.80;99.90;;;;;;5036089;28;20191;-76
2022/03/29 06:56:39;;;;;;;0.50;0.40;;;7.70;99.90;;;;;;5035095;28;20601;-76
2022/03/29 06:59:06;;;;;;;0.73;0.73;;;7.70;99.90;;;;;;5034947;28;20281;-76
2022/03/29 07:01:32;;;;;;;0.60;0.45;;;7.70;99.90;;;;;;5035350;28;20199;-77
2022/03/29 07:04:02;;;;;;;0.50;0.40;;;7.70;99.90;;;;;;5035465;28;20215;-76
2022/03/29 07:06:31;;;;;;;0.93;0.93;;;7.70;99.90;;;;;;5034745;28;20203;-75
2022/03/29 07:11:42;;;;;;;1.80;1.42;;;7.90;99.90;;;;;;5035186;28;20238;-77
2022/03/29 07:14:09;;;;;;;0.50;0.40;;;8.00;99.90;;;;;;5034913;28;20218;-76
2022/03/29 07:16:36;;;;;;;0.60;0.60;;;8.00;99.90;;;;;;5034894;28;20199;-75
2022/03/29 07:19:04;;;;;;;3.70;2.78;;;8.10;99.90;;;;;;5034537;28;20231;-75
2022/03/29 07:21:33;;;;;;;0.60;0.60;;;8.20;99.90;;;;;;5034624;28;20703;-76
2022/03/29 07:23:59;;;;;;;0.50;0.40;;;8.20;99.90;;;;;;5035156;28;20222;-76
2022/03/29 07:26:29;;;;;;;3.78;3.63;;;8.20;99.90;;;;;;5035005;28;20210;-76
2022/03/29 07:28:55;;;;;;;0.50;0.40;;;8.30;99.90;;;;;;5034353;28;20196;-76
2022/03/29 07:31:22;;;;;;;2.47;0.95;;;8.30;99.90;;;;;;5035318;28;20509;-76
2022/03/29 07:33:49;;;;;;;0.50;0.40;;;8.30;99.90;;;;;;5034692;28;20253;-75
2022/03/29 07:36:17;;;;;;;0.68;0.68;;;8.10;99.90;;;;;;5035912;28;20201;-76
2022/03/29 07:38:45;;;;;;;0.50;0.50;;;8.20;99.90;;;;;;5035197;28;20196;-76
2022/03/29 07:41:12;;;;;;;0.70;0.70;;;8.40;99.90;;;;;;5039110;28;20206;-76
2022/03/29 07:43:38;;;;;;;0.50;0.40;;;8.30;99.90;;;;;;5044462;28;20222;-76
2022/03/29 07:46:05;;;;;;;0.57;0.50;;;8.40;99.90;;;;;;5045602;28;20207;-78
2022/03/29 07:48:32;;;;;;;1.35;1.35;;;8.50;99.90;;;;;;5044173;28;20222;-73
2022/03/29 07:50:59;;;;;;;0.73;0.73;;;8.40;99.90;;;;;;5040404;28;20209;-76
2022/03/29 07:53:27;;;;;;;0.90;0.88;;;8.40;99.90;;;;;;5038419;28;20763;-76
2022/03/29 07:55:54;;;;;;;4.20;3.78;;;8.50;99.90;;;;;;5038002;28;20260;-77
2022/03/29 07:58:21;;;;;;;0.82;0.82;;;8.60;99.90;;;;;;5035337;28;20205;-77
2022/03/29 08:00:51;;;;;;;0.88;0.88;;;8.40;99.90;;;;;;5046237;28;20197;-78
2022/03/29 08:03:20;;;;;;;0.60;0.57;;;8.40;99.90;;;;;;5041538;28;20232;-76
2022/03/29 08:05:48;;;;;;;0.50;0.40;;;8.60;99.90;;;;;;5036351;28;20207;-78
2022/03/29 08:08:15;;;;;;;0.60;0.60;;;8.50;99.90;;;;;;5035066;28;20568;-80
2022/03/29 08:10:45;;;;;;;8.25;2.88;;;8.70;99.90;;;;;;5033453;28;20667;-78
2022/03/29 08:13:12;;;;;;;0.50;0.40;;;8.80;99.90;;;;;;5033941;28;20228;-78
2022/03/29 08:15:40;;;;;;;0.70;0.57;;;8.60;99.90;;;;;;5034262;28;20200;-78
2022/03/29 08:18:07;;;;;;;3.92;2.38;;;8.60;99.90;;;;;;5034466;28;20196;-79
2022/03/29 08:20:34;;;;;;;2.75;2.65;;;8.60;99.90;;;;;;5033246;28;20218;-77
2022/03/29 08:23:01;;;;;;;0.85;0.85;;;8.70;99.90;;;;;;5033984;28;20215;-77
2022/03/29 08:25:32;;;;;;;2.30;2.20;;;8.70;99.90;;;;;;5034207;28;20258;-77
2022/03/29 08:28:01;;;;;;;1.83;1.77;;;8.80;99.90;;;;;;5033928;28;20201;-78
2022/03/29 08:30:29;;;;;;;0.50;0.40;;;8.90;99.90;;;;;;5034420;28;20204;-78
2022/03/29 08:32:57;;;;;;;2.88;1.67;;;8.90;99.90;;;;;;5040901;28;20248;-78
2022/03/29 08:35:24;;;;;;;0.85;0.85;;;8.80;99.90;;;;;;5034020;28;20196;-78
2022/03/29 08:37:51;;;;;;;0.50;0.50;;;8.50;99.90;;;;;;5034130;28;20195;-78
2022/03/29 08:40:22;;;;;;;0.50;0.40;;;8.50;99.90;;;;;;5033192;28;20674;-77
2022/03/29 08:42:54;;;;;;;0.85;0.85;;;8.50;99.90;;;;;;5035982;28;20281;-78
2022/03/29 08:45:26;;;;;;;0.60;0.40;;;8.50;99.90;;;;;;5042420;28;20185;-78
2022/03/29 08:47:55;;;;;;;0.50;0.40;;;8.60;99.90;;;;;;5034957;28;20181;-78
2022/03/29 08:50:23;;;;;;;2.92;2.58;;;8.60;99.90;;;;;;5033323;28;20208;-77
2022/03/29 08:52:52;;;;;;;0.50;0.40;;;8.60;99.90;;;;;;5033964;28;20265;-77
2022/03/29 08:55:19;;;;;;;2.47;1.90;;;8.60;99.90;;;;;;5033418;28;20719;-78
2022/03/29 08:57:49;;;;;;;1.38;1.27;;;8.70;99.90;;;;;;5033578;28;20203;-79
2022/03/29 09:00:17;;;;;;;0.50;0.45;;;8.80;99.90;;;;;;5033005;28;20288;-77
2022/03/29 09:02:45;;;;;;;0.50;0.40;;;8.60;99.90;;;;;;5034035;28;20215;-78
2022/03/29 09:05:13;;;;;;;1.02;1.02;;;8.70;99.90;;;;;;5033590;28;20207;-78
2022/03/29 09:07:51;;;;;;;0.50;0.50;;;8.80;99.90;;;;;;5033441;28;20227;-78
2022/03/29 09:10:19;;;;;;;0.63;0.63;;;8.90;99.90;;;;;;5031502;28;20184;-78
2022/03/29 09:12:46;;;;;;;0.50;0.40;;;8.90;99.90;;;;;;5036219;28;20258;-78
2022/03/29 09:15:13;;;;;;;0.52;0.47;;;8.70;99.90;;;;;;5035087;28;20205;-77
2022/03/29 09:17:41;;;;;;;0.50;0.40;;;8.90;99.90;;;;;;5033823;28;20558;-78
2022/03/29 09:20:13;;;;;;;4.30;4.00;;;9.00;99.90;;;;;;5032497;28;20220;-78
2022/03/29 09:22:42;;;;;;;1.23;1.13;;;9.20;99.90;;;;;;5032720;28;20624;-78
2022/03/29 09:25:11;;;;;;;0.55;0.40;;;9.30;99.90;;;;;;5032165;28;20693;-78
2022/03/29 09:28:00;;;;;;;1.88;1.67;;;9.30;99.90;;;;;;5033551;28;20194;-78
2022/03/29 09:30:28;;;;;;;1.00;1.00;;;9.20;99.90;;;;;;5048777;28;20198;-78
2022/03/29 09:33:00;;;;;;;3.63;1.42;;;9.20;99.90;;;;;;5038104;28;20216;-78
2022/03/29 09:35:30;;;;;;;0.57;0.55;;;9.20;99.90;;;;;;5033007;28;20250;-77
2022/03/29 09:37:57;;;;;;;2.05;1.95;;;9.30;99.90;;;;;;5032559;28;20216;-79
2022/03/29 09:40:34;;;;;;;1.35;0.63;;;9.40;99.90;;;;;;5032108;28;20192;-78
2022/03/29 09:43:06;;;;;;;2.05;1.95;;;9.30;99.90;;;;;;5034173;28;20215;-78
2022/03/29 09:45:48;;;;;;;1.13;1.13;;;9.20;99.90;;;;;;5038748;28;20372;-76
2022/03/29 09:48:37;;;;;;;0.50;0.40;;;9.10;99.90;;;;;;5033524;28;20237;-78
2022/03/29 09:51:19;;;;;;;4.72;3.63;;;9.00;99.90;;;;;;5027781;28;20201;-77
2022/03/29 09:53:50;;;;;;;0.50;0.40;;;9.00;99.90;;;;;;5033399;28;20191;-79
2022/03/29 09:56:19;;;;;;;1.35;1.25;;;9.10;99.90;;;;;;5040648;28;20255;-78
2022/03/29 09:58:46;;;;;;;0.50;0.50;;;9.20;99.90;;;;;;5037812;28;20699;-79
2022/03/29 10:01:24;;;;;;;1.45;1.30;;;9.10;99.90;;;;;;5037736;28;20200;-78
2022/03/29 10:03:52;;;;;;;0.50;0.40;;;9.10;99.90;;;;;;5043346;28;20213;-76
2022/03/29 10:06:22;;;;;;;0.68;0.68;;;9.10;99.90;;;;;;5040567;28;20211;-76
2022/03/29 10:11:36;;;;;;;1.20;0.85;;;9.30;99.90;;;;;;5042393;28;20227;-75
2022/03/29 10:14:04;;;;;;;1.40;1.30;;;9.40;99.90;;;;;;5034908;28;20570;-77
2022/03/29 10:16:32;;;;;;;0.88;0.88;;;9.60;99.90;;;;;;5032441;28;20193;-77
2022/03/29 10:18:59;;;;;;;0.50;0.40;;;9.40;99.90;;;;;;5031864;28;20227;-76
2022/03/29 10:21:29;;;;;;;0.70;0.68;;;9.50;99.90;;;;;;5032220;28;20201;-76
2022/03/29 10:23:59;;;;;;;0.50;0.50;;;9.50;99.90;;;;;;5035197;28;20697;-77
2022/03/29 10:26:28;;;;;;;0.50;0.40;;;9.50;99.90;;;;;;5036035;28;20291;-76
2022/03/29 10:28:55;;;;;;;3.60;3.45;;;9.40;99.90;;;;;;5035132;28;20204;-77
2022/03/29 10:31:30;;;;;;;1.15;1.15;;;9.40;99.90;;;;;;5035463;28;20676;-77
2022/03/29 10:34:17;;;;;;;3.03;2.78;;;9.60;99.90;;;;;;5036215;28;20200;-77
2022/03/29 10:37:16;;;;;;;1.15;1.05;;;9.80;99.90;;;;;;5036073;28;20199;-76
2022/03/29 10:39:54;;;;;;;2.03;1.75;;;10.00;99.90;;;;;;4973837;28;20591;-77
2022/03/29 10:42:40;;;;;;;0.77;0.77;;;10.00;99.90;;;;;;5026906;28;20223;-75
2022/03/29 10:45:17;;;;;;;0.85;0.85;;;10.20;99.90;;;;;;5035674;28;20247;-75
2022/03/29 10:47:46;;;;;;;1.50;1.40;;;10.30;99.90;;;;;;5035704;28;20202;-77
2022/03/29 10:50:15;;;;;;;1.05;0.95;;;10.30;99.90;;;;;;5035370;28;20206;-78
2022/03/29 10:52:45;;;;;;;14.98;6.93;;;10.50;99.90;;;;;;5035364;28;20238;-77
2022/03/29 10:55:18;;;;;;;0.50;0.40;;;10.70;99.90;;;;;;5036086;28;20205;-77
2022/03/29 10:58:04;;;;;;;16.75;4.28;;;10.70;99.90;;;;;;5035423;28;20645;-76
2022/03/29 11:00:31;;;;;;;0.50;0.40;;;10.60;99.90;;;;;;5025103;28;20205;-77
2022/03/29 11:03:08;;;;;;;0.60;0.45;;;10.60;99.90;;;;;;5035456;28;20252;-77
2022/03/29 11:06:05;;;;;;;11.80;2.45;;;10.60;99.90;;;;;;5035085;28;20200;-77
2022/03/29 11:08:35;;;;;;;2.25;2.15;;;10.70;99.90;;;;;;5034949;28;20256;-74
2022/03/29 11:11:02;;;;;;;0.60;0.60;;;10.60;99.90;;;;;;5033265;28;20201;-77
2022/03/29 11:13:31;;;;;;;0.50;0.40;;;10.30;99.90;;;;;;5034851;28;20222;-74
2022/03/29 11:16:02;;;;;;;0.52;0.45;;;10.50;99.90;;;;;;5034777;28;20255;-77
2022/03/29 11:18:50;;;;;;;0.60;0.60;;;10.50;99.90;;;;;;5047480;28;20193;-78
2022/03/29 11:21:38;;;;;;;0.60;0.50;;;10.70;99.90;;;;;;5052624;28;20176;-77
2022/03/29 11:24:08;;;;;;;0.77;0.77;;;10.60;99.90;;;;;;5050512;28;20218;-77
2022/03/29 11:26:36;;;;;;;0.50;0.40;;;10.70;99.90;;;;;;5044280;28;20222;-77
2022/03/29 11:29:06;;;;;;;0.50;0.40;;;10.70;99.90;;;;;;5034175;28;20673;-77
2022/03/29 11:31:35;;;;;;;10.63;1.52;;;10.90;99.90;;;;;;5034708;28;20225;-77
2022/03/29 11:34:03;;;;;;;13.27;3.50;;;11.00;99.90;;;;;;5034353;28;20206;-78
2022/03/29 11:36:30;;;;;;;3.97;3.75;;;11.10;99.90;;;;;;5034784;28;20225;-76
2022/03/29 11:38:57;;;;;;;0.50;0.40;;;10.90;99.90;;;;;;5033728;28;20293;-76
2022/03/29 11:41:26;;;;;;;0.55;0.50;;;10.70;99.90;;;;;;5034428;28;20197;-77
2022/03/29 11:43:56;;;;;;;5.38;4.20;;;10.80;99.90;;;;;;5034400;28;20226;-77
2022/03/29 11:46:24;;;;;;;0.50;0.40;;;11.00;99.90;;;;;;5034096;28;20199;-78
2022/03/29 11:48:52;;;;;;;1.95;1.85;;;11.10;99.90;;;;;;5034102;28;20206;-76
2022/03/29 11:51:19;;;;;;;0.98;0.98;;;11.40;99.90;;;;;;5034728;28;20585;-78
2022/03/29 11:53:57;;;;;;;8.27;5.40;;;11.60;99.90;;;;;;5034658;28;20201;-77
2022/03/29 11:56:26;;;;;;;4.07;3.35;;;11.60;99.90;;;;;;5034577;28;20202;-77
2022/03/29 11:58:54;;;;;;;1.88;1.77;;;11.70;99.90;;;;;;5033573;28;20660;-77
2022/03/29 12:01:24;;;;;;;1.52;1.42;;;11.80;99.90;;;;;;5033724;28;20225;-75
2022/03/29 12:03:54;;;;;;;0.70;0.70;;;11.80;99.90;;;;;;5034198;28;20280;-77
2022/03/29 12:06:22;;;;;;;1.85;1.75;;;12.00;99.90;;;;;;5034303;28;20195;-77
2022/03/29 12:08:52;;;;;;;2.78;2.15;;;12.00;99.90;;;;;;5033623;28;20212;-77
2022/03/29 12:11:20;;;;;;;0.50;0.40;;;11.90;99.90;;;;;;5032406;28;20202;-77
2022/03/29 12:13:59;;;;;;;13.60;5.07;;;12.00;99.90;;;;;;5033742;28;20205;-77
2022/03/29 12:16:27;;;;;;;2.00;1.88;;;12.10;99.90;;;;;;5034535;28;20230;-76
2022/03/29 12:18:55;;;;;;;1.02;1.02;;;12.30;99.90;;;;;;5033657;28;20200;-76
2022/03/29 12:21:23;;;;;;;0.50;0.40;;;12.50;99.90;;;;;;5033921;28;20202;-77
2022/03/29 12:24:03;;;;;;;1.45;1.35;;;12.40;99.90;;;;;;5033461;28;20195;-76
2022/03/29 12:26:31;;;;;;;3.53;2.20;;;12.10;99.90;;;;;;5033918;28;20180;-75
2022/03/29 12:29:01;;;;;;;0.68;0.63;;;12.10;99.90;;;;;;5032309;28;20673;-76
2022/03/29 12:31:29;;;;;;;0.60;0.60;;;12.10;99.90;;;;;;5033330;28;20249;-76
2022/03/29 12:33:56;;;;;;;0.50;0.40;;;12.00;99.90;;;;;;5033282;28;20192;-76
2022/03/29 12:36:24;;;;;;;1.98;1.13;;;12.10;99.90;;;;;;5032893;28;20238;-76
2022/03/29 12:38:52;;;;;;;1.42;1.42;;;12.30;99.90;;;;;;5033185;28;20198;-77
2022/03/29 12:41:32;;;;;;;0.50;0.40;;;12.60;99.90;;;;;;5032839;28;20198;-76
2022/03/29 12:44:01;;;;;;;2.75;2.15;;;13.20;99.90;;;;;;5033136;28;20264;-76
2022/03/29 12:46:29;;;;;;;3.90;3.60;;;13.40;99.90;;;;;;5033373;28;20195;-75
2022/03/29 12:48:57;;;;;;;0.50;0.32;;;13.40;99.90;;;;;;5036045;28;20816;-78
2022/03/29 12:51:28;;;;;;;11.67;3.60;;;13.60;99.90;;;;;;5043926;28;20191;-78
2022/03/29 12:53:59;;;;;;;1.93;1.83;;;13.80;99.90;;;;;;5056034;28;20441;-77
2022/03/29 12:56:31;;;;;;;1.53;1.27;;;14.10;99.90;;;;;;5054725;28;20544;-77
2022/03/29 12:58:58;;;;;;;0.50;0.40;;;14.20;99.90;;;;;;5053228;28;20841;-77
2022/03/29 13:01:29;;;;;;;2.97;2.87;;;14.60;99.90;;;;;;5056262;28;20438;-77
2022/03/29 13:04:06;;;;;;;0.60;0.60;;;15.00;99.90;;;;;;5054843;28;20433;-77
2022/03/29 13:06:40;;;;;;;0.63;0.63;;;15.50;99.90;;;;;;5053031;28;20931;-78
2022/03/29 13:09:07;;;;;;;0.50;0.40;;;15.90;99.90;;;;;;5054731;28;20851;-77
2022/03/29 13:11:34;;;;;;;0.50;0.40;;;16.00;99.90;;;;;;5053737;28;20448;-76
2022/03/29 13:14:05;;;;;;;1.90;1.80;;;16.40;99.90;;;;;;5055951;28;20438;-77